createdAt,value
2022-09-01T00:00:04.275Z,5.53
2022-09-01T00:02:34.983Z,8.85
2022-09-01T00:05:04.559Z,7.43
2022-09-01T00:07:32.253Z,6.68
2022-09-01T00:10:00.549Z,6.28
2022-09-01T00:12:28.465Z,9.57
2022-09-01T00:14:56.177Z,7.60
2022-09-01T00:17:23.934Z,7.60
2022-09-01T00:19:51.811Z,6.20
2022-09-01T00:22:19.447Z,6.70
2022-09-01T00:24:47.380Z,7.55
2022-09-01T00:27:15.008Z,9.65
2022-09-01T00:29:43.361Z,8.02
2022-09-01T00:32:11.999Z,9.52
2022-09-01T00:34:40.230Z,6.85
2022-09-01T00:37:08.730Z,9.50
2022-09-01T00:39:36.635Z,7.18
2022-09-01T00:42:04.403Z,7.63
2022-09-01T00:44:32.379Z,8.52
2022-09-01T00:47:00.525Z,8.50
2022-09-01T00:49:28.349Z,9.05
2022-09-01T00:52:02.715Z,8.82
2022-09-01T00:54:32.858Z,12.40
2022-09-01T00:57:01.097Z,13.85
2022-09-01T00:59:29.036Z,12.65
2022-09-01T01:01:58.084Z,15.52
2022-09-01T01:04:25.774Z,19.15
2022-09-01T01:07:02.809Z,21.42
2022-09-01T01:09:35.597Z,23.05
2022-09-01T01:12:03.970Z,19.33
2022-09-01T01:14:32.369Z,31.17
2022-09-01T01:17:01.139Z,26.40
2022-09-01T01:19:47.295Z,23.50
2022-09-01T01:22:38.811Z,27.88
2022-09-01T01:25:07.827Z,24.70
2022-09-01T01:27:38.088Z,42.08
2022-09-01T01:30:12.054Z,25.17
2022-09-01T01:32:43.289Z,25.42
2022-09-01T01:35:15.092Z,32.10
2022-09-01T01:37:49.171Z,28.27
2022-09-01T01:40:19.797Z,25.60
2022-09-01T01:42:49.075Z,28.55
2022-09-01T01:45:18.170Z,27.73
2022-09-01T01:47:56.364Z,51.63
2022-09-01T01:50:35.592Z,33.47
2022-09-01T01:53:10.978Z,25.55
2022-09-01T01:55:41.766Z,35.50
2022-09-01T01:58:12.286Z,36.80
2022-09-01T02:03:12.647Z,31.50
2022-09-01T02:05:41.039Z,34.72
2022-09-01T02:08:11.073Z,37.70
2022-09-01T02:10:46.729Z,31.33
2022-09-01T02:13:18.935Z,26.40
2022-09-01T02:15:50.370Z,51.80
2022-09-01T02:18:19.995Z,29.33
2022-09-01T02:20:49.408Z,38.22
2022-09-01T02:23:18.146Z,51.78
2022-09-01T02:26:12.007Z,25.02
2022-09-01T02:28:37.025Z,25.15
2022-09-01T02:31:08.895Z,25.13
2022-09-01T02:33:37.292Z,23.70
2022-09-01T02:36:09.361Z,32.38
2022-09-01T02:38:37.198Z,20.02
2022-09-01T02:41:06.977Z,35.63
2022-09-01T02:43:34.774Z,23.23
2022-09-01T02:48:37.325Z,20.85
2022-09-01T02:51:07.391Z,20.38
2022-09-01T02:53:36.008Z,20.27
2022-09-01T02:56:09.657Z,21.52
2022-09-01T02:58:42.032Z,19.08
2022-09-01T03:01:12.787Z,18.58
2022-09-01T03:03:40.887Z,19.95
2022-09-01T03:06:12.859Z,20.08
2022-09-01T03:08:40.915Z,20.83
2022-09-01T03:11:13.037Z,20.67
2022-09-01T03:13:41.953Z,19.27
2022-09-01T03:16:09.871Z,17.00
2022-09-01T03:18:38.378Z,15.88
2022-09-01T03:21:08.589Z,15.82
2022-09-01T03:23:36.847Z,15.55
2022-09-01T03:26:05.087Z,14.35
2022-09-01T03:28:33.458Z,14.13
2022-09-01T03:31:01.178Z,13.80
2022-09-01T03:33:29.713Z,12.73
2022-09-01T03:35:58.567Z,11.07
2022-09-01T03:38:26.594Z,13.18
2022-09-01T03:40:59.066Z,11.25
2022-09-01T03:43:27.609Z,11.07
2022-09-01T03:46:03.052Z,11.90
2022-09-01T03:48:32.120Z,11.98
2022-09-01T03:51:03.889Z,10.15
2022-09-01T03:53:34.674Z,11.30
2022-09-01T03:56:04.272Z,14.07
2022-09-01T03:58:33.213Z,9.97
2022-09-01T04:01:02.786Z,9.73
2022-09-01T04:03:32.130Z,9.75
2022-09-01T04:06:02.284Z,8.98
2022-09-01T04:08:32.831Z,9.98
2022-09-01T04:11:05.196Z,9.95
2022-09-01T04:13:36.104Z,11.30
2022-09-01T04:16:10.398Z,12.20
2022-09-01T04:18:40.021Z,11.25
2022-09-01T04:21:09.000Z,10.85
2022-09-01T04:23:37.143Z,11.57
2022-09-01T04:26:20.453Z,10.75
2022-09-01T04:28:50.737Z,11.50
2022-09-01T04:31:19.898Z,10.05
2022-09-01T04:33:53.317Z,11.55
2022-09-01T04:36:25.796Z,12.95
2022-09-01T04:38:58.486Z,11.73
2022-09-01T04:41:31.020Z,10.70
2022-09-01T04:44:05.157Z,11.52
2022-09-01T04:46:47.904Z,13.40
2022-09-01T04:49:19.647Z,16.30
2022-09-01T04:51:53.389Z,11.90
2022-09-01T04:54:22.787Z,11.35
2022-09-01T04:56:52.800Z,11.02
2022-09-01T04:59:22.339Z,12.27
2022-09-01T05:01:57.544Z,11.43
2022-09-01T05:04:27.743Z,10.85
2022-09-01T05:07:02.422Z,9.75
2022-09-01T05:09:35.985Z,11.10
2022-09-01T05:12:21.885Z,12.98
2022-09-01T05:14:49.964Z,10.70
2022-09-01T05:17:19.292Z,11.93
2022-09-01T05:19:50.643Z,10.40
2022-09-01T05:22:22.101Z,10.77
2022-09-01T05:24:56.492Z,12.88
2022-09-01T05:27:25.679Z,10.80
2022-09-01T05:29:54.192Z,12.68
2022-09-01T05:32:25.921Z,12.65
2022-09-01T05:34:54.260Z,11.82
2022-09-01T05:37:30.803Z,12.95
2022-09-01T05:39:58.604Z,11.60
2022-09-01T05:42:28.564Z,13.18
2022-09-01T05:44:58.029Z,12.27
2022-09-01T05:47:26.352Z,11.88
2022-09-01T05:49:58.411Z,12.60
2022-09-01T05:52:26.715Z,12.63
2022-09-01T05:55:00.205Z,12.43
2022-09-01T05:57:34.621Z,11.15
2022-09-01T06:00:10.772Z,11.85
2022-09-01T06:02:42.876Z,10.27
2022-09-01T06:05:15.818Z,13.50
2022-09-01T06:07:44.321Z,10.18
2022-09-01T06:10:16.082Z,13.25
2022-09-01T06:12:45.330Z,10.18
2022-09-01T06:15:20.395Z,13.23
2022-09-01T06:17:52.672Z,12.07
2022-09-01T06:20:20.443Z,11.52
2022-09-01T06:22:48.898Z,10.13
2022-09-01T06:25:18.544Z,10.95
2022-09-01T06:27:48.093Z,11.95
2022-09-01T06:30:23.719Z,11.05
2022-09-01T06:33:05.226Z,11.65
2022-09-01T06:35:33.969Z,12.18
2022-09-01T06:38:02.819Z,11.38
2022-09-01T06:40:41.299Z,11.23
2022-09-01T06:43:12.082Z,11.05
2022-09-01T06:45:43.449Z,10.57
2022-09-01T06:48:15.979Z,10.57
2022-09-01T06:53:35.199Z,7.22
2022-09-01T06:56:18.749Z,8.07
2022-09-01T06:58:48.798Z,8.30
2022-09-01T07:01:19.588Z,6.82
2022-09-01T07:03:51.169Z,8.15
2022-09-01T07:13:07.345Z,8.63
2022-09-01T07:18:29.173Z,8.23
2022-09-01T07:24:07.845Z,7.05
2022-09-01T07:26:36.173Z,7.88
2022-09-01T07:29:06.082Z,8.18
2022-09-01T07:34:46.203Z,9.80
2022-09-01T07:38:46.775Z,10.23
2022-09-01T07:42:31.866Z,9.13
2022-09-01T07:43:29.785Z,7.38
2022-09-01T07:51:55.213Z,6.20
2022-09-01T07:54:23.939Z,6.90
2022-09-01T07:56:55.617Z,6.25
2022-09-01T07:59:24.410Z,7.57
2022-09-01T08:02:06.650Z,6.85
2022-09-01T08:04:34.657Z,6.30
2022-09-01T08:07:03.143Z,5.80
2022-09-01T08:09:37.532Z,6.32
2022-09-01T08:12:08.396Z,5.43
2022-09-01T08:14:42.538Z,4.78
2022-09-01T08:17:33.028Z,6.95
2022-09-01T08:20:01.353Z,7.10
2022-09-01T08:22:48.409Z,5.55
2022-09-01T08:25:24.752Z,6.63
2022-09-01T08:28:01.928Z,4.55
2022-09-01T08:30:32.458Z,6.55
2022-09-01T08:33:10.206Z,6.25
2022-09-01T08:35:42.489Z,4.75
2022-09-01T08:38:10.952Z,6.60
2022-09-01T08:40:39.110Z,5.60
2022-09-01T08:43:27.436Z,5.10
2022-09-01T08:46:01.787Z,5.68
2022-09-01T08:51:51.541Z,6.90
2022-09-01T08:54:29.924Z,7.35
2022-09-01T08:59:48.541Z,4.03
2022-09-01T09:02:38.514Z,5.03
2022-09-01T09:05:21.680Z,5.20
2022-09-01T09:08:08.155Z,3.80
2022-09-01T09:10:52.901Z,4.68
2022-09-01T09:13:32.891Z,5.55
2022-09-01T09:16:10.139Z,4.80
2022-09-01T09:18:54.603Z,5.72
2022-09-01T09:21:35.129Z,3.72
2022-09-01T09:24:19.350Z,4.40
2022-09-01T09:26:50.585Z,6.15
2022-09-01T09:29:18.911Z,3.90
2022-09-01T09:31:50.508Z,3.55
2022-09-01T09:34:32.468Z,4.28
2022-09-01T09:37:19.057Z,3.75
2022-09-01T09:39:46.737Z,4.28
2022-09-01T09:42:16.004Z,4.00
2022-09-01T09:44:52.681Z,5.32
2022-09-01T09:47:43.887Z,4.03
2022-09-01T09:50:14.678Z,3.97
2022-09-01T09:52:44.289Z,3.33
2022-09-01T09:55:23.184Z,3.58
2022-09-01T09:57:51.414Z,4.97
2022-09-01T10:00:24.064Z,4.07
2022-09-01T10:03:09.969Z,2.97
2022-09-01T10:05:46.587Z,5.60
2022-09-01T10:08:16.213Z,4.10
2022-09-01T10:10:57.786Z,6.05
2022-09-01T10:13:32.988Z,4.88
2022-09-01T10:16:03.595Z,5.35
2022-09-01T10:18:44.953Z,3.42
2022-09-01T10:21:17.593Z,3.45
2022-09-01T10:23:45.292Z,3.28
2022-09-01T10:26:16.106Z,2.80
2022-09-01T10:29:06.888Z,3.10
2022-09-01T10:31:35.583Z,3.70
2022-09-01T10:34:05.467Z,2.85
2022-09-01T10:36:37.401Z,3.92
2022-09-01T10:39:08.911Z,2.72
2022-09-01T10:41:59.936Z,3.13
2022-09-01T10:44:36.252Z,2.90
2022-09-01T10:47:24.258Z,3.05
2022-09-01T10:49:51.948Z,3.55
2022-09-01T10:52:38.601Z,5.90
2022-09-01T10:55:08.660Z,3.08
2022-09-01T10:57:43.072Z,2.75
2022-09-01T11:00:37.390Z,3.08
2022-09-01T11:03:31.805Z,2.47
2022-09-01T11:06:13.295Z,3.28
2022-09-01T11:08:50.985Z,2.42
2022-09-01T11:11:37.738Z,3.47
2022-09-01T11:14:17.003Z,3.45
2022-09-01T11:16:46.224Z,2.92
2022-09-01T11:19:29.473Z,2.72
2022-09-01T11:22:04.627Z,3.25
2022-09-01T11:24:41.621Z,4.70
2022-09-01T11:27:11.223Z,4.53
2022-09-01T11:30:00.298Z,5.22
2022-09-01T11:32:40.864Z,3.90
2022-09-01T11:35:18.064Z,4.20
2022-09-01T11:37:48.735Z,3.47
2022-09-01T11:40:21.671Z,3.60
2022-09-01T11:42:55.417Z,3.70
2022-09-01T11:45:34.031Z,3.47
2022-09-01T11:48:04.236Z,7.30
2022-09-01T11:53:05.477Z,4.88
2022-09-01T11:55:44.903Z,2.75
2022-09-01T11:58:17.795Z,4.53
2022-09-01T12:00:45.647Z,3.30
2022-09-01T12:03:25.615Z,4.35
2022-09-01T12:08:24.215Z,3.00
2022-09-01T12:10:54.820Z,2.42
2022-09-01T12:13:24.043Z,3.35
2022-09-01T12:16:16.928Z,2.93
2022-09-01T12:18:48.139Z,2.60
2022-09-01T12:21:21.586Z,8.25
2022-09-01T12:23:49.419Z,8.70
2022-09-01T12:26:19.494Z,4.53
2022-09-01T12:31:21.200Z,4.67
2022-09-01T12:33:49.406Z,4.05
2022-09-01T12:36:27.379Z,2.25
2022-09-01T12:38:56.203Z,3.67
2022-09-01T12:41:35.327Z,3.03
2022-09-01T12:44:22.120Z,4.32
2022-09-01T12:46:49.789Z,3.63
2022-09-01T12:49:25.312Z,3.53
2022-09-01T12:52:15.184Z,2.80
2022-09-01T12:54:42.946Z,3.08
2022-09-01T12:57:10.864Z,3.65
2022-09-01T12:59:38.550Z,2.10
2022-09-01T13:02:25.148Z,2.97
2022-09-01T13:04:53.120Z,2.03
2022-09-01T13:07:21.680Z,2.95
2022-09-01T13:09:49.405Z,7.20
2022-09-01T13:12:18.464Z,2.40
2022-09-01T13:14:46.223Z,1.75
2022-09-01T13:17:15.568Z,2.45
2022-09-01T13:19:43.228Z,4.17
2022-09-01T13:22:11.399Z,2.55
2022-09-01T13:24:39.960Z,5.10
2022-09-01T13:27:23.646Z,3.70
2022-09-01T13:29:51.920Z,3.35
2022-09-01T13:32:21.595Z,6.30
2022-09-01T13:34:51.798Z,3.63
2022-09-01T13:39:48.400Z,2.35
2022-09-01T13:42:16.682Z,2.50
2022-09-01T13:44:44.865Z,2.38
2022-09-01T13:47:29.296Z,1.67
2022-09-01T13:50:14.482Z,2.40
2022-09-01T13:52:44.602Z,2.55
2022-09-01T13:55:16.564Z,3.67
2022-09-01T13:57:44.556Z,2.42
2022-09-01T14:00:15.623Z,2.72
2022-09-01T14:02:50.080Z,2.15
2022-09-01T14:05:18.990Z,2.20
2022-09-01T14:07:46.701Z,3.38
2022-09-01T14:10:14.487Z,2.75
2022-09-01T14:12:42.874Z,3.47
2022-09-01T14:15:13.768Z,6.20
2022-09-01T14:17:46.992Z,2.92
2022-09-01T14:20:16.671Z,2.10
2022-09-01T14:22:45.291Z,1.80
2022-09-01T14:25:13.267Z,2.70
2022-09-01T14:27:42.151Z,2.30
2022-09-01T14:30:15.333Z,5.10
2022-09-01T14:32:43.081Z,1.65
2022-09-01T14:35:10.920Z,1.52
2022-09-01T14:37:39.116Z,1.98
2022-09-01T14:40:08.467Z,2.20
2022-09-01T14:42:37.238Z,3.95
2022-09-01T14:45:05.613Z,2.88
2022-09-01T14:47:33.677Z,2.30
2022-09-01T14:50:02.629Z,2.08
2022-09-01T14:52:30.656Z,1.40
2022-09-01T14:54:59.444Z,2.60
2022-09-01T14:57:30.760Z,3.10
2022-09-01T15:00:10.220Z,3.30
2022-09-01T15:02:38.807Z,2.90
2022-09-01T15:05:06.776Z,2.05
2022-09-01T15:07:34.715Z,2.30
2022-09-01T15:10:02.486Z,2.13
2022-09-01T15:12:31.048Z,2.78
2022-09-01T15:14:59.550Z,2.17
2022-09-01T15:17:28.210Z,2.35
2022-09-01T15:19:55.839Z,2.42
2022-09-01T15:22:23.659Z,1.95
2022-09-01T15:24:51.189Z,2.33
2022-09-01T15:27:18.947Z,3.20
2022-09-01T15:29:48.968Z,3.78
2022-09-01T15:32:20.728Z,3.33
2022-09-01T15:34:56.511Z,2.47
2022-09-01T15:37:24.102Z,2.13
2022-09-01T15:39:51.754Z,2.97
2022-09-01T15:42:19.970Z,2.28
2022-09-01T15:44:47.789Z,2.58
2022-09-01T15:47:17.195Z,3.20
2022-09-01T15:49:45.046Z,3.13
2022-09-01T15:52:12.721Z,1.90
2022-09-01T15:54:40.436Z,2.97
2022-09-01T15:57:08.966Z,3.15
2022-09-01T15:59:40.101Z,2.58
2022-09-01T16:02:08.217Z,3.05
2022-09-01T16:04:36.196Z,2.05
2022-09-01T16:07:04.425Z,2.60
2022-09-01T16:09:32.561Z,3.08
2022-09-01T16:12:00.221Z,2.42
2022-09-01T16:14:28.913Z,4.53
2022-09-01T16:17:04.105Z,3.45
2022-09-01T16:19:39.474Z,2.30
2022-09-01T16:22:23.328Z,2.95
2022-09-01T16:24:54.118Z,2.20
2022-09-01T16:27:22.857Z,15.02
2022-09-01T16:29:58.896Z,7.72
2022-09-01T16:32:27.157Z,5.03
2022-09-01T16:34:54.799Z,4.80
2022-09-01T16:37:26.408Z,3.42
2022-09-01T16:40:10.963Z,2.83
2022-09-01T16:43:27.021Z,2.42
2022-09-01T16:46:08.030Z,2.50
2022-09-01T16:48:55.004Z,2.58
2022-09-01T16:51:28.042Z,3.22
2022-09-01T16:54:01.366Z,3.70
2022-09-01T16:56:37.160Z,2.42
2022-09-01T16:59:05.361Z,3.25
2022-09-01T17:02:02.664Z,3.03
2022-09-01T17:04:42.967Z,2.28
2022-09-01T17:07:21.445Z,5.68
2022-09-01T17:10:07.538Z,2.47
2022-09-01T17:12:41.396Z,2.90
2022-09-01T17:15:15.007Z,3.95
2022-09-01T17:17:46.895Z,2.78
2022-09-01T17:20:15.756Z,2.58
2022-09-01T17:22:53.346Z,2.72
2022-09-01T17:25:47.631Z,2.70
2022-09-01T17:28:20.894Z,2.30
2022-09-01T17:31:00.351Z,2.78
2022-09-01T17:33:35.576Z,3.72
2022-09-01T17:36:20.092Z,3.45
2022-09-01T17:39:03.423Z,3.80
2022-09-01T17:41:45.596Z,3.42
2022-09-01T17:44:21.388Z,3.25
2022-09-01T17:47:01.701Z,2.28
2022-09-01T17:49:39.339Z,3.42
2022-09-01T17:52:13.339Z,2.92
2022-09-01T17:55:03.704Z,4.70
2022-09-01T17:57:38.192Z,2.70
2022-09-01T18:00:16.990Z,4.60
2022-09-01T18:02:50.819Z,3.78
2022-09-01T18:05:24.737Z,3.88
2022-09-01T18:07:52.974Z,2.50
2022-09-01T18:10:39.708Z,3.58
2022-09-01T18:13:12.404Z,2.80
2022-09-01T18:15:52.496Z,2.70
2022-09-01T18:18:21.510Z,4.43
2022-09-01T18:20:49.994Z,5.75
2022-09-01T18:23:25.151Z,3.42
2022-09-01T18:25:58.076Z,2.45
2022-09-01T18:28:26.078Z,2.53
2022-09-01T18:31:01.732Z,3.55
2022-09-01T18:33:31.074Z,2.90
2022-09-01T18:36:17.580Z,3.40
2022-09-01T18:38:51.654Z,3.65
2022-09-01T18:41:19.314Z,3.75
2022-09-01T18:44:09.605Z,3.47
2022-09-01T18:46:59.769Z,2.67
2022-09-01T18:49:30.753Z,3.22
2022-09-01T18:51:58.554Z,3.90
2022-09-01T18:54:45.055Z,3.05
2022-09-01T18:57:18.154Z,3.75
2022-09-01T18:59:52.226Z,2.75
2022-09-01T19:02:59.427Z,4.07
2022-09-01T19:05:33.356Z,2.95
2022-09-01T19:08:05.630Z,6.55
2022-09-01T19:10:57.093Z,2.80
2022-09-01T19:13:28.112Z,3.85
2022-09-01T19:16:05.172Z,2.92
2022-09-01T19:18:40.584Z,3.42
2022-09-01T19:21:23.548Z,5.43
2022-09-01T19:23:55.034Z,3.58
2022-09-01T19:26:25.353Z,3.42
2022-09-01T19:29:05.728Z,3.88
2022-09-01T19:31:37.384Z,4.55
2022-09-01T19:34:19.475Z,3.72
2022-09-01T19:36:55.121Z,2.97
2022-09-01T19:39:25.253Z,4.40
2022-09-01T19:41:56.362Z,5.40
2022-09-01T19:44:33.023Z,3.60
2022-09-01T19:47:02.566Z,3.85
2022-09-01T19:49:52.170Z,4.20
2022-09-01T19:52:27.973Z,4.60
2022-09-01T19:54:55.646Z,4.13
2022-09-01T19:57:28.611Z,4.35
2022-09-01T20:00:07.561Z,2.78
2022-09-01T20:02:56.515Z,3.78
2022-09-01T20:05:27.488Z,3.10
2022-09-01T20:07:59.735Z,3.00
2022-09-01T20:10:37.943Z,4.55
2022-09-01T20:16:10.953Z,4.38
2022-09-01T20:18:41.123Z,6.60
2022-09-01T20:21:20.845Z,3.92
2022-09-01T20:23:52.024Z,6.13
2022-09-01T20:26:26.905Z,4.43
2022-09-01T20:29:04.912Z,2.80
2022-09-01T20:31:53.715Z,4.82
2022-09-01T20:34:29.253Z,4.45
2022-09-01T20:37:15.448Z,6.70
2022-09-01T20:40:00.928Z,3.95
2022-09-01T20:42:47.413Z,5.00
2022-09-01T20:45:23.201Z,4.90
2022-09-01T20:47:55.080Z,7.60
2022-09-01T20:50:34.672Z,3.88
2022-09-01T20:53:10.036Z,5.93
2022-09-01T20:55:40.976Z,6.60
2022-09-01T20:58:11.563Z,3.60
2022-09-01T21:00:46.854Z,4.18
2022-09-01T21:03:21.705Z,4.53
2022-09-01T21:06:26.860Z,4.93
2022-09-01T21:09:02.516Z,5.63
2022-09-01T21:12:06.940Z,4.82
2022-09-01T21:14:47.974Z,3.35
2022-09-01T21:17:31.551Z,2.83
2022-09-01T21:20:22.797Z,3.55
2022-09-01T21:22:51.054Z,5.50
2022-09-01T21:25:18.922Z,5.43
2022-09-01T21:27:51.384Z,7.72
2022-09-01T21:30:19.849Z,4.18
2022-09-01T21:32:47.758Z,7.20
2022-09-01T21:35:17.591Z,4.80
2022-09-01T21:37:45.339Z,3.80
2022-09-01T21:40:14.038Z,4.78
2022-09-01T21:42:45.109Z,5.40
2022-09-01T21:45:17.772Z,4.53
2022-09-01T21:47:46.202Z,5.63
2022-09-01T21:50:15.385Z,4.72
2022-09-01T21:52:43.165Z,5.07
2022-09-01T21:55:10.916Z,5.78
2022-09-01T21:57:38.666Z,7.30
2022-09-01T22:00:13.690Z,4.10
2022-09-01T22:02:45.334Z,5.25
2022-09-01T22:05:13.978Z,5.38
2022-09-01T22:07:44.743Z,6.18
2022-09-01T22:10:14.530Z,4.55
2022-09-01T22:12:45.899Z,5.93
2022-09-01T22:15:14.466Z,4.63
2022-09-01T22:17:42.132Z,4.80
2022-09-01T22:20:10.913Z,4.68
2022-09-01T22:22:38.878Z,5.13
2022-09-01T22:25:12.554Z,5.05
2022-09-01T22:27:40.410Z,8.48
2022-09-01T22:30:08.499Z,5.13
2022-09-01T22:32:37.920Z,4.80
2022-09-01T22:35:06.783Z,5.57
2022-09-01T22:37:35.087Z,4.45
2022-09-01T22:40:02.919Z,6.05
2022-09-01T22:42:30.656Z,4.65
2022-09-01T22:44:58.352Z,7.03
2022-09-01T22:47:26.114Z,8.70
2022-09-01T22:49:56.876Z,5.68
2022-09-01T22:52:25.477Z,5.57
2022-09-01T22:54:53.513Z,5.43
2022-09-01T22:57:21.235Z,7.43
2022-09-01T22:59:48.901Z,7.63
2022-09-01T23:02:17.167Z,4.63
2022-09-01T23:04:46.627Z,5.05
2022-09-01T23:07:14.362Z,6.88
2022-09-01T23:09:41.990Z,6.57
2022-09-01T23:12:09.608Z,4.95
2022-09-01T23:14:37.327Z,6.22
2022-09-01T23:17:05.060Z,6.82
2022-09-01T23:19:35.655Z,5.07
2022-09-01T23:22:03.405Z,4.65
2022-09-01T23:24:31.097Z,6.80
2022-09-01T23:26:58.850Z,4.88
2022-09-01T23:29:29.501Z,6.05
2022-09-01T23:31:58.385Z,6.07
2022-09-01T23:34:26.013Z,6.10
2022-09-01T23:36:53.648Z,6.38
2022-09-01T23:39:21.248Z,5.13
2022-09-01T23:41:48.894Z,4.85
2022-09-01T23:44:16.676Z,4.55
2022-09-01T23:46:45.777Z,5.68
2022-09-01T23:49:14.621Z,4.78
2022-09-01T23:51:42.283Z,4.60
2022-09-01T23:54:10.054Z,4.45
2022-09-01T23:56:38.284Z,4.63
2022-09-01T23:59:06.694Z,4.32
